Time;durP1;ratioP1;P1;durP2;ratioP2;P2;SDS_P1;SDS_P2;PMS_P1;PMS_P2;Temp;Humidity;BMP_temperature;BMP_pressure;BME280_temperature;BME280_humidity;BME280_pressure;Samples;Min_cycle;Max_cycle;Signal;HPM_P1;HPM_P2
2022/05/19 00:01:29;;;;;;;4.12;1.15;;;;;;;9.57;64.84;101574.59;5588816;31;34585;-65
2022/05/19 00:04:34;;;;;;;3.62;1.30;;;;;;;9.45;65.82;101582.75;5588877;31;34013;-65
2022/05/19 00:07:36;;;;;;;1.60;1.00;;;;;;;9.40;66.91;101587.59;5588704;31;34629;-65
2022/05/19 00:10:45;;;;;;;3.05;1.30;;;;;;;9.36;66.36;101589.66;5588954;31;33978;-65
2022/05/19 00:13:48;;;;;;;2.50;1.40;;;;;;;9.35;66.58;101595.09;5587924;31;32423;-64
2022/05/19 00:16:56;;;;;;;3.55;1.30;;;;;;;9.33;66.01;101594.41;5588990;31;34556;-64
2022/05/19 00:19:59;;;;;;;2.45;1.37;;;;;;;9.29;66.89;101591.19;5588564;31;35141;-65
2022/05/19 00:23:02;;;;;;;3.20;1.40;;;;;;;9.29;67.96;101583.22;5588505;31;33949;-65
2022/05/19 00:26:04;;;;;;;3.00;1.25;;;;;;;9.27;68.63;101585.16;5588356;31;34652;-65
2022/05/19 00:29:07;;;;;;;1.77;0.90;;;;;;;9.28;68.13;101591.28;5588153;31;34098;-64
2022/05/19 00:32:10;;;;;;;2.87;1.45;;;;;;;9.23;67.80;101588.19;5588617;31;33913;-65
2022/05/19 00:35:13;;;;;;;3.85;1.17;;;;;;;9.44;67.77;101592.50;5587557;31;33940;-65
2022/05/19 00:38:16;;;;;;;2.62;1.10;;;;;;;9.49;67.94;101597.41;5588547;31;34084;-64
2022/05/19 00:41:19;;;;;;;3.33;0.95;;;;;;;9.53;67.10;101589.09;5588386;31;34040;-65
2022/05/19 00:44:22;;;;;;;2.60;1.10;;;;;;;9.56;67.08;101587.97;5588122;31;34592;-64
2022/05/19 00:47:31;;;;;;;3.45;1.52;;;;;;;9.51;67.08;101596.31;5588425;31;34241;-64
2022/05/19 00:50:45;;;;;;;1.40;0.95;;;;;;;9.59;66.41;101600.94;5574534;31;32543;-64
2022/05/19 00:53:52;;;;;;;1.83;1.10;;;;;;;9.42;67.26;101596.25;5590832;31;34247;-65
2022/05/19 00:57:05;;;;;;;3.12;1.02;;;;;;;9.25;69.77;101599.47;5590780;31;34063;-65
2022/05/19 01:00:14;;;;;;;6.50;1.20;;;;;;;9.23;69.52;101596.13;5590176;31;34059;-64
2022/05/19 01:03:18;;;;;;;3.45;1.17;;;;;;;9.12;71.07;101595.22;5590659;31;33952;-65
2022/05/19 01:06:24;;;;;;;2.37;1.05;;;;;;;9.29;68.47;101600.94;5590026;31;32331;-65
2022/05/19 01:09:28;;;;;;;2.08;1.17;;;;;;;9.15;68.87;101599.41;5589972;31;34560;-65
2022/05/19 01:12:31;;;;;;;4.43;1.15;;;;;;;9.01;68.07;101597.09;5590605;31;34070;-65
2022/05/19 01:15:37;;;;;;;3.87;1.10;;;;;;;9.06;69.58;101600.19;5590511;31;34166;-65
2022/05/19 01:18:42;;;;;;;5.70;1.37;;;;;;;8.92;69.16;101601.34;5589639;31;32551;-64
2022/05/19 01:21:45;;;;;;;2.22;1.12;;;;;;;8.79;70.04;101610.44;5590418;31;34270;-65
2022/05/19 01:25:00;;;;;;;2.37;1.10;;;;;;;8.64;70.75;101607.22;5590463;31;33885;-65
2022/05/19 01:28:03;;;;;;;1.83;1.10;;;;;;;8.57;70.71;101600.75;5590415;31;35325;-65
2022/05/19 01:31:05;;;;;;;3.35;1.20;;;;;;;8.48;72.98;101590.91;5590131;31;34183;-65
2022/05/19 01:34:08;;;;;;;3.12;1.10;;;;;;;8.43;72.06;101596.59;5590366;31;34522;-65
2022/05/19 01:37:11;;;;;;;3.37;1.30;;;;;;;8.42;72.45;101599.37;5589344;31;34520;-65
2022/05/19 01:41:10;;;;;;;2.50;1.40;;;;;;;8.39;72.94;101608.38;5590676;31;34862;-65
2022/05/19 01:44:38;;;;;;;4.82;1.33;;;;;;;8.36;73.46;101603.34;5565800;31;33901;-65
2022/05/19 01:47:51;;;;;;;3.85;1.33;;;;;;;8.41;74.19;101603.81;5589555;31;34324;-65
2022/05/19 01:51:04;;;;;;;1.92;1.23;;;;;;;8.44;74.67;101602.72;5589678;31;32408;-65
2022/05/19 01:54:47;;;;;;;2.70;1.27;;;;;;;8.37;75.18;101605.03;5590228;31;34534;-65
2022/05/19 01:57:57;;;;;;;3.47;1.45;;;;;;;8.28;76.25;101603.91;5590204;31;35268;-65
2022/05/19 02:01:04;;;;;;;2.95;1.70;;;;;;;8.22;76.73;101601.78;5590206;31;34348;-65
2022/05/19 02:04:39;;;;;;;1.40;1.10;;;;;;;8.14;77.80;101603.34;5589295;31;34906;-65
2022/05/19 02:07:45;;;;;;;2.15;1.42;;;;;;;8.11;79.07;101606.25;5523049;31;33811;-65
2022/05/19 02:10:52;;;;;;;5.28;1.60;;;;;;;8.06;79.38;101603.97;5590042;31;34410;-65
2022/05/19 02:13:57;;;;;;;6.25;1.55;;;;;;;8.02;80.12;101609.63;5590061;31;33939;-65
2022/05/19 02:17:04;;;;;;;3.12;1.45;;;;;;;8.03;81.81;101601.56;5589991;31;35166;-65
2022/05/19 02:20:11;;;;;;;3.33;1.27;;;;;;;8.01;83.34;101600.84;5589219;31;34729;-65
2022/05/19 02:23:15;;;;;;;3.42;1.40;;;;;;;7.97;84.16;101602.06;5589231;31;33264;-65
2022/05/19 02:26:18;;;;;;;2.62;1.40;;;;;;;7.98;85.60;101600.25;5589901;31;34614;-65
2022/05/19 02:29:26;;;;;;;2.33;1.30;;;;;;;7.99;87.58;101613.31;5589858;31;33929;-65
2022/05/19 02:32:29;;;;;;;2.37;1.15;;;;;;;7.90;88.52;101613.22;5589920;31;33925;-65
2022/05/19 02:35:32;;;;;;;4.05;1.67;;;;;;;7.83;90.16;101608.44;5589762;31;34166;-66
2022/05/19 02:38:35;;;;;;;3.22;1.70;;;;;;;7.85;90.88;101617.06;5590189;31;33995;-65
2022/05/19 02:41:38;;;;;;;4.15;1.52;;;;;;;7.95;92.73;101618.97;5589163;31;33823;-65
2022/05/19 02:44:40;;;;;;;3.72;1.60;;;;;;;8.03;92.43;101624.50;5589996;31;33987;-64
2022/05/19 02:47:43;;;;;;;1.80;1.23;;;;;;;8.01;93.63;101624.62;5589830;31;33861;-65
2022/05/19 02:50:49;;;;;;;2.05;1.58;;;;;;;8.31;92.50;101637.25;5589042;31;33944;-65
2022/05/19 02:53:51;;;;;;;4.40;1.50;;;;;;;8.16;92.01;101635.78;5590081;31;34228;-65
2022/05/19 02:56:55;;;;;;;2.90;1.35;;;;;;;8.02;93.27;101636.87;5590101;31;33981;-65
2022/05/19 02:59:58;;;;;;;2.42;1.25;;;;;;;7.93;94.21;101627.03;5588530;31;32821;-65
2022/05/19 03:03:01;;;;;;;5.82;1.42;;;;;;;8.30;96.25;101638.22;5589583;31;33927;-65
2022/05/19 03:06:04;;;;;;;4.32;1.62;;;;;;;8.33;95.46;101634.50;5589525;31;35327;-65
2022/05/19 03:09:07;;;;;;;2.58;1.35;;;;;;;8.43;96.57;101638.06;5588831;31;33948;-65
2022/05/19 03:12:12;;;;;;;2.15;1.35;;;;;;;8.59;96.04;101639.34;5589604;31;34060;-65
2022/05/19 03:15:15;;;;;;;2.05;1.30;;;;;;;8.54;96.77;101645.97;5589570;31;34036;-65
2022/05/19 03:18:18;;;;;;;2.10;1.27;;;;;;;8.38;98.37;101638.44;5589446;31;33917;-65
2022/05/19 03:21:21;;;;;;;3.00;1.27;;;;;;;8.35;99.68;101643.13;5589763;31;34234;-65
2022/05/19 03:24:28;;;;;;;3.20;1.40;;;;;;;8.25;99.01;101637.69;5589369;31;33749;-65
2022/05/19 03:27:31;;;;;;;3.25;1.58;;;;;;;8.24;98.87;101636.84;5589359;31;33954;-65
2022/05/19 03:30:35;;;;;;;3.50;1.55;;;;;;;8.18;98.51;101637.34;5589317;31;34568;-65
2022/05/19 03:33:38;;;;;;;2.78;1.60;;;;;;;8.12;99.41;101637.84;5589302;31;34130;-65
2022/05/19 03:36:40;;;;;;;2.20;1.45;;;;;;;8.14;98.65;101643.84;5589526;31;35320;-65
2022/05/19 03:39:44;;;;;;;3.22;1.65;;;;;;;8.12;98.92;101658.16;5589194;31;33977;-66
2022/05/19 03:42:47;;;;;;;3.05;1.55;;;;;;;8.14;98.14;101651.75;5589071;31;33946;-65
2022/05/19 03:45:50;;;;;;;4.50;1.50;;;;;;;8.16;97.59;101660.44;5589083;31;33832;-65
2022/05/19 03:48:53;;;;;;;3.22;1.48;;;;;;;8.32;95.79;101661.88;5588942;31;34741;-66
2022/05/19 03:51:56;;;;;;;2.50;1.42;;;;;;;8.59;91.07;101662.31;5588921;31;34611;-65
2022/05/19 03:54:59;;;;;;;4.22;1.42;;;;;;;8.82;88.25;101658.62;5588055;31;32747;-65
2022/05/19 03:58:02;;;;;;;2.95;1.58;;;;;;;9.10;85.42;101660.69;5588963;31;34619;-65
2022/05/19 04:01:05;;;;;;;5.40;1.40;;;;;;;9.12;86.26;101668.50;5588924;31;33980;-65
2022/05/19 04:04:08;;;;;;;3.90;1.50;;;;;;;9.33;86.00;101668.53;5587700;31;33368;-65
2022/05/19 04:07:11;;;;;;;3.17;1.30;;;;;;;9.26;85.65;101673.50;5587452;31;33358;-65
2022/05/19 04:10:14;;;;;;;5.35;1.83;;;;;;;9.36;85.28;101676.22;5588685;31;34061;-65
2022/05/19 04:13:17;;;;;;;2.28;1.20;;;;;;;9.28;84.73;101679.53;5587891;31;33105;-65
2022/05/19 04:16:20;;;;;;;2.28;1.20;;;;;;;9.38;83.84;101676.94;5587946;31;34579;-65
2022/05/19 04:19:22;;;;;;;2.30;1.62;;;;;;;9.49;83.13;101679.50;5587866;31;32564;-65
2022/05/19 04:22:25;;;;;;;2.25;1.40;;;;;;;9.52;83.15;101677.47;5587794;31;32778;-65
2022/05/19 04:25:29;;;;;;;1.67;1.10;;;;;;;9.53;80.27;101684.44;5588369;31;33920;-64
2022/05/19 04:28:32;;;;;;;4.12;1.33;;;;;;;9.56;78.35;101689.47;5590972;31;33912;-65
2022/05/19 04:31:35;;;;;;;3.60;1.58;;;;;;;9.75;79.68;101693.22;5590701;31;33911;-65
2022/05/19 04:34:38;;;;;;;4.75;1.40;;;;;;;9.89;78.85;101698.19;5589963;31;32778;-65
2022/05/19 04:37:42;;;;;;;4.35;1.50;;;;;;;10.11;79.48;101695.38;5590516;31;35486;-65
2022/05/19 04:40:49;;;;;;;3.03;1.73;;;;;;;10.17;80.96;101699.31;5590810;31;35227;-65
2022/05/19 04:43:55;;;;;;;6.40;1.48;;;;;;;10.22;82.07;101694.44;5590809;31;34656;-64
2022/05/19 04:46:57;;;;;;;2.85;1.40;;;;;;;10.25;80.03;101692.41;5590133;31;32446;-65
2022/05/19 04:50:00;;;;;;;2.67;1.05;;;;;;;10.30;80.07;101699.94;5590671;31;33948;-65
2022/05/19 04:53:03;;;;;;;3.33;1.75;;;;;;;10.40;77.66;101695.53;5590576;31;33939;-65
2022/05/19 04:56:05;;;;;;;1.73;1.20;;;;;;;10.50;76.11;101701.72;5590695;31;34558;-65
2022/05/19 04:59:14;;;;;;;2.65;1.20;;;;;;;10.61;73.50;101695.44;5590572;31;34087;-65
2022/05/19 05:02:17;;;;;;;1.70;1.08;;;;;;;10.75;70.40;101701.19;5590334;31;34637;-65
2022/05/19 05:05:21;;;;;;;2.00;1.30;;;;;;;10.78;68.57;101694.78;5590655;31;33908;-65
2022/05/19 05:08:25;;;;;;;2.47;1.40;;;;;;;10.83;66.37;101701.37;5590314;31;34218;-64
2022/05/19 05:11:28;;;;;;;3.85;1.30;;;;;;;10.79;66.36;101699.97;5590256;31;34777;-65
2022/05/19 05:14:31;;;;;;;3.37;1.50;;;;;;;11.01;64.97;101701.50;5589611;31;32310;-64
2022/05/19 05:17:34;;;;;;;6.57;1.30;;;;;;;11.11;64.39;101699.72;5576304;31;32654;-65
2022/05/19 05:20:38;;;;;;;2.37;1.30;;;;;;;11.30;63.82;101694.41;5590625;31;34030;-64
2022/05/19 05:23:41;;;;;;;2.37;1.45;;;;;;;11.29;62.60;101698.03;5576573;31;33273;-65
2022/05/19 05:26:43;;;;;;;2.28;1.40;;;;;;;11.44;61.62;101700.25;5590135;31;34026;-64
2022/05/19 05:29:46;;;;;;;6.80;1.92;;;;;;;11.53;62.20;101702.91;5589988;31;35203;-65
2022/05/19 05:32:50;;;;;;;2.40;1.50;;;;;;;11.64;61.99;101707.22;5588738;31;32417;-66
2022/05/19 05:35:53;;;;;;;2.78;1.48;;;;;;;11.82;60.09;101704.69;5589516;31;33015;-65
2022/05/19 05:38:56;;;;;;;2.65;1.45;;;;;;;11.97;60.56;101714.75;5588394;31;33000;-65
2022/05/19 05:41:59;;;;;;;2.83;1.25;;;;;;;11.84;61.38;101711.56;5589835;31;33960;-65
2022/05/19 05:45:02;;;;;;;3.10;1.20;;;;;;;12.06;60.34;101710.38;5589140;31;32772;-65
2022/05/19 05:48:08;;;;;;;4.65;1.62;;;;;;;12.18;60.10;101712.72;5589833;31;34131;-65
2022/05/19 05:51:12;;;;;;;2.42;1.60;;;;;;;12.36;59.88;101720.75;5589346;31;33103;-65
2022/05/19 05:54:15;;;;;;;3.65;1.50;;;;;;;12.42;58.39;101709.53;5589972;31;33920;-64
2022/05/19 05:57:18;;;;;;;5.57;1.50;;;;;;;12.55;57.61;101723.34;5589066;31;34012;-65
2022/05/19 06:00:21;;;;;;;4.10;1.45;;;;;;;12.70;57.41;101725.50;5575700;31;34259;-65
2022/05/19 06:03:24;;;;;;;4.55;1.60;;;;;;;12.90;55.39;101727.91;5589377;31;33958;-65
2022/05/19 06:06:28;;;;;;;4.28;1.92;;;;;;;13.16;54.54;101721.87;5589598;31;32883;-64
2022/05/19 06:09:31;;;;;;;2.12;1.30;;;;;;;13.28;53.73;101716.16;5589409;31;33431;-64
2022/05/19 06:12:33;;;;;;;4.60;1.85;;;;;;;13.41;52.56;101716.59;5589859;31;34302;-65
2022/05/19 06:15:41;;;;;;;7.25;2.00;;;;;;;13.53;52.33;101708.37;5588324;31;32358;-64
2022/05/19 06:18:44;;;;;;;2.95;1.80;;;;;;;13.63;50.94;101709.97;5588914;31;32362;-65
2022/05/19 06:21:48;;;;;;;2.80;1.55;;;;;;;13.81;51.54;101709.91;5588939;31;33576;-65
2022/05/19 06:24:51;;;;;;;4.37;2.10;;;;;;;14.09;50.65;101705.25;5589369;31;34721;-64
2022/05/19 06:27:54;;;;;;;3.40;1.90;;;;;;;14.20;52.09;101707.66;5589283;31;33910;-65
2022/05/19 06:30:57;;;;;;;6.15;2.47;;;;;;;14.36;50.96;101718.44;5589062;31;33915;-65
2022/05/19 06:34:01;;;;;;;6.78;2.08;;;;;;;14.52;53.28;101720.34;5588665;31;34276;-65
2022/05/19 06:37:04;;;;;;;3.45;2.17;;;;;;;14.70;50.96;101713.91;5588293;31;32782;-66
2022/05/19 06:40:09;;;;;;;3.67;1.95;;;;;;;14.93;50.13;101721.31;5588667;31;34367;-65
2022/05/19 06:43:19;;;;;;;4.18;2.50;;;;;;;15.07;48.32;101709.97;5589426;31;33959;-65
2022/05/19 06:46:23;;;;;;;10.85;3.08;;;;;;;15.25;46.96;101708.00;5588948;31;33752;-65
2022/05/19 06:49:27;;;;;;;4.70;2.40;;;;;;;15.52;46.87;101715.75;5589295;31;34404;-65
2022/05/19 06:52:32;;;;;;;5.40;2.80;;;;;;;15.93;47.90;101713.00;5575719;31;33093;-65
2022/05/19 06:55:36;;;;;;;4.35;2.20;;;;;;;16.22;46.29;101721.31;5588652;31;34500;-65
2022/05/19 06:58:39;;;;;;;6.43;2.92;;;;;;;16.46;45.78;101720.38;5588903;31;33222;-65
2022/05/19 07:01:43;;;;;;;5.95;2.50;;;;;;;16.77;44.88;101715.94;5589526;31;34297;-65
2022/05/19 07:04:48;;;;;;;7.10;2.95;;;;;;;17.06;46.06;101714.41;5588659;31;32718;-65
2022/05/19 07:07:50;;;;;;;13.00;2.65;;;;;;;17.33;42.80;101709.34;5588707;31;33382;-65
2022/05/19 07:10:53;;;;;;;6.90;2.85;;;;;;;17.65;43.36;101715.50;5588546;31;33075;-65
2022/05/19 07:13:59;;;;;;;5.15;2.80;;;;;;;17.98;39.60;101716.03;5588877;31;32292;-65
2022/05/19 07:17:02;;;;;;;3.62;1.95;;;;;;;18.31;39.43;101711.13;5588654;31;33678;-65
2022/05/19 07:23:33;;;;;;;4.72;1.98;;;;;;;19.15;33.59;101713.22;5587623;31;34000;-66
2022/05/19 07:26:35;;;;;;;5.32;1.95;;;;;;;19.62;34.21;101707.25;5588412;31;33351;-65
2022/05/19 07:29:39;;;;;;;3.25;1.60;;;;;;;20.31;33.08;101705.47;5588012;31;34121;-66
2022/05/19 07:32:42;;;;;;;2.25;1.30;;;;;;;21.47;31.42;101711.66;5588440;31;33064;-66
2022/05/19 07:35:46;;;;;;;8.43;1.20;;;;;;;21.52;28.99;101699.19;5588519;31;33151;-67
2022/05/19 07:38:49;;;;;;;3.87;1.45;;;;;;;21.77;28.04;101704.78;5588979;31;34614;-67
2022/05/19 07:41:55;;;;;;;2.80;1.30;;;;;;;22.48;25.83;101699.44;5589317;31;34758;-66
2022/05/19 07:44:57;;;;;;;1.80;0.90;;;;;;;22.53;26.15;101700.47;5575205;31;32823;-66
2022/05/19 07:48:00;;;;;;;1.92;0.85;;;;;;;23.32;25.07;101697.34;5588241;31;32904;-65
2022/05/19 07:51:03;;;;;;;4.22;0.90;;;;;;;23.71;22.93;101684.56;5588223;31;33076;-66
2022/05/19 07:54:10;;;;;;;1.87;1.00;;;;;;;23.72;23.47;101686.22;5588141;31;32433;-66
2022/05/19 07:57:13;;;;;;;3.40;1.02;;;;;;;24.77;22.32;101695.88;5588039;31;33135;-67
2022/05/19 08:00:18;;;;;;;2.85;0.93;;;;;;;24.48;22.12;101685.84;5586816;31;33943;-66
2022/05/19 08:03:23;;;;;;;3.95;1.73;;;;;;;25.31;20.69;101689.47;5587521;31;32414;-67
2022/05/19 08:06:30;;;;;;;6.30;1.20;;;;;;;24.75;21.69;101697.16;5588522;31;34206;-66
2022/05/19 08:16:17;;;;;;;2.85;1.00;;;;;;;26.13;21.37;101697.69;5587483;31;34045;-66
2022/05/19 08:19:20;;;;;;;3.20;1.30;;;;;;;26.19;20.20;101699.47;5587332;31;33692;-67
2022/05/19 08:22:23;;;;;;;1.73;1.20;;;;;;;27.06;19.28;101705.63;5588234;31;33911;-67
2022/05/19 08:25:27;;;;;;;8.32;1.65;;;;;;;27.87;19.65;101682.44;5574454;31;33217;-66
2022/05/19 08:28:31;;;;;;;5.82;1.48;;;;;;;27.39;17.99;101696.66;5573911;31;33817;-66
2022/05/19 08:31:36;;;;;;;4.72;1.55;;;;;;;27.87;18.15;101688.72;5587584;31;33925;-65
2022/05/19 08:34:38;;;;;;;2.37;0.95;;;;;;;27.38;17.26;101692.28;5587815;31;35310;-66
2022/05/19 08:37:41;;;;;;;2.08;1.10;;;;;;;25.46;19.06;101687.13;5587776;31;33995;-65
2022/05/19 08:40:48;;;;;;;2.35;1.15;;;;;;;26.03;18.19;101697.47;5587177;31;32526;-65
2022/05/19 08:43:59;;;;;;;1.30;0.80;;;;;;;25.39;18.56;101683.69;5587551;31;34221;-66
2022/05/19 08:47:04;;;;;;;1.90;0.98;;;;;;;26.63;18.40;101687.03;5587199;31;33041;-66
2022/05/19 08:50:38;;;;;;;1.87;0.82;;;;;;;27.25;18.31;101677.87;5586967;31;32619;-66
2022/05/19 08:53:42;;;;;;;1.95;0.90;;;;;;;27.92;16.73;101683.34;5573459;31;32854;-64
2022/05/19 08:57:13;;;;;;;4.53;1.10;;;;;;;27.96;16.04;101687.22;5586519;31;32476;-66
2022/05/19 09:00:26;;;;;;;2.25;0.90;;;;;;;28.59;15.28;101685.03;5586957;31;34030;-66
2022/05/19 09:03:52;;;;;;;2.85;1.17;;;;;;;29.16;16.11;101679.91;5586675;31;32438;-65
2022/05/19 09:11:14;;;;;;;1.77;1.12;;;;;;;27.73;16.47;101681.13;5587107;31;34606;-66
2022/05/19 09:14:26;;;;;;;1.33;0.80;;;;;;;26.79;17.36;101675.38;5575933;31;33936;-65
2022/05/19 09:17:33;;;;;;;2.30;0.80;;;;;;;28.10;16.83;101674.84;5589903;31;34950;-66
2022/05/19 09:20:42;;;;;;;1.30;0.80;;;;;;;27.05;19.56;101672.09;5590126;31;35271;-66
2022/05/19 09:23:45;;;;;;;0.93;0.77;;;;;;;28.64;16.73;101675.00;5589293;31;32440;-66
2022/05/19 09:26:54;;;;;;;1.62;0.80;;;;;;;27.03;16.98;101670.69;5588831;31;32745;-65
2022/05/19 09:29:58;;;;;;;4.05;0.88;;;;;;;27.86;16.48;101676.16;5589067;31;32470;-66
2022/05/19 09:33:15;;;;;;;6.05;0.90;;;;;;;27.75;16.09;101666.16;5589813;31;34359;-65
2022/05/19 09:36:19;;;;;;;2.78;0.60;;;;;;;27.97;16.10;101656.13;5588568;31;33300;-66
2022/05/19 09:39:22;;;;;;;1.12;0.70;;;;;;;29.78;15.86;101658.25;5589822;31;34681;-66
2022/05/19 09:42:48;;;;;;;1.23;0.98;;;;;;;28.85;16.38;101657.75;5589720;31;32658;-64
2022/05/19 09:45:58;;;;;;;21.80;2.10;;;;;;;28.34;16.51;101660.97;5576145;31;33332;-65
2022/05/19 09:49:05;;;;;;;1.50;0.88;;;;;;;28.23;18.30;101643.66;5589600;31;34483;-67
2022/05/19 09:52:08;;;;;;;1.90;0.80;;;;;;;28.40;16.77;101644.41;5590270;31;35160;-66
2022/05/19 09:55:14;;;;;;;2.00;0.80;;;;;;;29.78;15.57;101636.38;5589996;31;34051;-66
2022/05/19 09:58:19;;;;;;;1.42;0.52;;;;;;;29.87;15.46;101637.50;5590486;31;34373;-64
2022/05/19 10:01:29;;;;;;;3.97;0.88;;;;;;;30.48;15.07;101640.56;5576198;31;32452;-67
2022/05/19 10:04:39;;;;;;;2.47;0.90;;;;;;;31.05;14.85;101640.41;5589336;31;34001;-67
2022/05/19 10:07:47;;;;;;;2.62;0.73;;;;;;;31.41;16.58;101630.25;5588917;31;33102;-67
2022/05/19 10:11:00;;;;;;;2.28;0.80;;;;;;;30.46;15.71;101624.41;5588787;31;32659;-68
2022/05/19 10:14:02;;;;;;;1.60;0.90;;;;;;;31.23;14.95;101623.41;5576183;31;33150;-66
2022/05/19 10:17:21;;;;;;;4.65;0.68;;;;;;;32.00;14.59;101624.09;5589355;31;32442;-67
2022/05/19 10:20:32;;;;;;;3.08;0.90;;;;;;;31.19;14.61;101619.56;5590096;31;34175;-67
2022/05/19 10:24:22;;;;;;;0.82;0.70;;;;;;;31.72;14.04;101617.31;5589271;31;34042;-66
2022/05/19 10:31:18;;;;;;;2.40;0.80;;;;;;;31.65;14.03;101609.41;5588601;31;33173;-67
2022/05/19 10:34:23;;;;;;;1.58;0.50;;;;;;;31.43;14.63;101608.84;5588334;31;34834;-66
2022/05/19 10:37:58;;;;;;;2.10;0.60;;;;;;;32.05;13.41;101605.66;5589241;31;34360;-67
2022/05/19 10:41:13;;;;;;;3.30;0.80;;;;;;;32.32;13.48;101594.31;5588507;31;32598;-66
2022/05/19 10:44:41;;;;;;;1.02;0.70;;;;;;;32.87;13.45;101595.06;5588804;31;32320;-66
2022/05/19 10:48:03;;;;;;;1.07;0.60;;;;;;;33.33;12.04;101590.00;5589326;31;33999;-65
2022/05/19 10:51:19;;;;;;;1.40;0.60;;;;;;;32.85;13.35;101578.03;5589504;31;34764;-66
2022/05/19 10:54:41;;;;;;;1.23;0.60;;;;;;;33.33;12.36;101582.56;5562978;31;33180;-66
2022/05/19 10:58:02;;;;;;;0.95;0.70;;;;;;;32.93;12.73;101566.41;5588399;31;32582;-68
2022/05/19 11:01:35;;;;;;;1.08;0.55;;;;;;;33.92;12.40;101571.19;5589491;31;35182;-67
2022/05/19 11:05:02;;;;;;;1.00;0.70;;;;;;;35.07;13.33;101557.88;5589384;31;34121;-65
2022/05/19 11:08:21;;;;;;;3.92;0.68;;;;;;;32.64;12.12;101555.37;5550576;31;34760;-66
2022/05/19 11:11:24;;;;;;;1.58;0.60;;;;;;;34.32;11.26;101552.50;5588351;31;32669;-65
2022/05/19 11:15:02;;;;;;;1.20;0.50;;;;;;;34.33;11.40;101556.84;5588379;31;33349;-66
2022/05/19 11:18:31;;;;;;;2.78;0.60;;;;;;;34.53;10.76;101548.28;5589584;31;34094;-65
2022/05/19 11:21:40;;;;;;;;;;;;;;;33.03;11.76;101534.16;5589480;31;34573;-66
2022/05/19 11:28:44;;;;;;;1.27;0.60;;;;;;;33.22;11.60;101536.19;5576528;31;34954;-66
2022/05/19 11:32:09;;;;;;;2.15;0.90;;;;;;;35.12;10.01;101527.44;5588550;31;32523;-66
2022/05/19 11:35:24;;;;;;;1.30;0.75;;;;;;;35.17;9.83;101530.97;5587437;31;32635;-67
2022/05/19 11:38:37;;;;;;;6.22;0.70;;;;;;;33.90;10.81;101518.34;5589068;31;33943;-67
2022/05/19 11:41:40;;;;;;;7.03;0.70;;;;;;;35.38;11.66;101523.12;5575182;31;32440;-67
2022/05/19 11:44:44;;;;;;;2.83;0.45;;;;;;;35.79;10.96;101506.53;5588317;31;33300;-67
2022/05/19 11:55:45;;;;;;;1.77;0.60;;;;;;;37.37;10.73;101496.81;5588674;31;34465;-67
2022/05/19 11:58:49;;;;;;;1.10;0.70;;;;;;;37.18;10.88;101482.38;5575149;31;33376;-67
2022/05/19 12:01:55;;;;;;;2.85;0.70;;;;;;;36.33;10.36;101490.97;5587749;31;33856;-67
2022/05/19 12:05:10;;;;;;;1.42;0.60;;;;;;;36.36;10.15;101477.31;5587889;31;33156;-67
2022/05/19 12:08:18;;;;;;;0.70;0.50;;;;;;;34.85;10.93;101478.59;5587208;31;34187;-66
2022/05/19 12:11:30;;;;;;;1.98;0.70;;;;;;;34.15;11.27;101481.34;5587753;31;33234;-67
2022/05/19 12:14:38;;;;;;;0.80;0.60;;;;;;;34.61;11.43;101470.44;5587332;31;33109;-66
2022/05/19 12:18:11;;;;;;;1.00;0.62;;;;;;;35.34;11.33;101477.13;5587097;31;32861;-67
2022/05/19 12:21:22;;;;;;;0.80;0.55;;;;;;;36.35;9.75;101469.38;5587473;31;34587;-66
2022/05/19 12:24:39;;;;;;;1.08;0.68;;;;;;;34.74;10.57;101464.16;5573916;31;34137;-66
2022/05/19 12:28:04;;;;;;;0.90;0.60;;;;;;;35.13;11.25;101457.37;5587256;31;33696;-66
2022/05/19 12:31:56;;;;;;;1.20;0.50;;;;;;;37.22;9.42;101452.12;5587094;31;32685;-67
2022/05/19 12:35:10;;;;;;;2.05;0.62;;;;;;;36.49;9.70;101453.53;5586898;31;33735;-67
2022/05/19 12:38:52;;;;;;;0.88;0.60;;;;;;;38.25;9.00;101449.50;5587074;31;34032;-67
2022/05/19 12:42:12;;;;;;;1.23;0.70;;;;;;;38.55;9.30;101456.00;5586874;31;32430;-66
2022/05/19 12:45:27;;;;;;;1.17;0.50;;;;;;;38.47;8.28;101460.44;5586736;31;33661;-66
2022/05/19 12:48:33;;;;;;;1.50;0.65;;;;;;;38.47;8.61;101443.00;5589243;31;32646;-67
2022/05/19 12:51:52;;;;;;;9.23;1.08;;;;;;;39.03;9.07;101445.41;5589609;31;32480;-66
2022/05/19 12:55:22;;;;;;;1.77;0.73;;;;;;;37.89;9.49;101437.94;5576801;31;32713;-66
2022/05/19 12:58:39;;;;;;;1.90;0.50;;;;;;;38.63;8.46;101446.87;5589931;31;33445;-65
2022/05/19 13:01:52;;;;;;;2.00;0.65;;;;;;;38.23;8.74;101441.53;5590399;31;34294;-67
2022/05/19 13:05:15;;;;;;;0.77;0.50;;;;;;;39.33;8.26;101428.78;5590094;31;33973;-67
2022/05/19 13:08:35;;;;;;;4.20;0.80;;;;;;;38.81;9.43;101425.41;5589350;31;33425;-66
2022/05/19 13:11:48;;;;;;;1.10;0.60;;;;;;;38.07;9.63;101426.53;5589909;31;33200;-66
2022/05/19 13:15:00;;;;;;;1.10;0.50;;;;;;;36.42;9.74;101412.50;5576410;31;32521;-65
2022/05/19 13:18:08;;;;;;;2.03;0.75;;;;;;;36.48;9.77;101415.94;5589657;31;32350;-66
2022/05/19 13:21:22;;;;;;;5.80;1.10;;;;;;;37.86;9.28;101411.69;5589598;31;34061;-67
2022/05/19 13:24:27;;;;;;;1.10;0.60;;;;;;;37.83;9.42;101417.88;5589205;31;32583;-65
2022/05/19 13:30:56;;;;;;;1.30;0.90;;;;;;;36.17;9.19;101402.91;5590045;31;33917;-66
2022/05/19 13:33:59;;;;;;;0.88;0.70;;;;;;;37.92;8.84;101406.78;5589978;31;34020;-66
2022/05/19 13:37:03;;;;;;;2.20;0.70;;;;;;;39.16;8.03;101404.72;5589017;31;32658;-66
2022/05/19 13:40:12;;;;;;;1.55;0.70;;;;;;;39.41;7.73;101395.41;5576164;31;32553;-66
2022/05/19 13:43:35;;;;;;;1.42;0.75;;;;;;;39.21;8.16;101393.41;5588954;31;34104;-65
2022/05/19 13:46:39;;;;;;;1.42;0.50;;;;;;;38.46;8.53;101397.00;5588520;31;34375;-65
2022/05/19 13:49:43;;;;;;;1.35;0.70;;;;;;;36.25;9.55;101392.25;5589600;31;34440;-66
2022/05/19 13:52:52;;;;;;;0.95;0.75;;;;;;;36.92;9.20;101387.38;5588528;31;33900;-66
2022/05/19 13:55:58;;;;;;;2.87;0.90;;;;;;;35.81;9.78;101384.75;5589555;31;33881;-67
2022/05/19 13:59:02;;;;;;;1.55;0.68;;;;;;;38.32;9.44;101388.03;5574668;31;32422;-66
2022/05/19 14:02:09;;;;;;;1.05;0.70;;;;;;;40.26;7.47;101373.63;5589395;31;34674;-65
2022/05/19 14:05:43;;;;;;;1.30;0.70;;;;;;;39.28;8.89;101367.88;5589677;31;34025;-65
2022/05/19 14:08:47;;;;;;;5.00;0.82;;;;;;;39.09;8.78;101366.38;5573406;31;32540;-67
2022/05/19 14:12:20;;;;;;;0.70;0.55;;;;;;;38.83;8.93;101371.22;5575493;31;33016;-65
2022/05/19 14:15:29;;;;;;;4.28;0.70;;;;;;;37.58;9.26;101366.06;5589054;31;34360;-66
2022/05/19 14:18:41;;;;;;;3.35;0.82;;;;;;;36.46;9.73;101360.97;5575255;31;32490;-66
2022/05/19 14:21:44;;;;;;;2.22;0.75;;;;;;;33.30;12.24;101363.09;5588466;31;33084;-67
2022/05/19 14:24:49;;;;;;;2.10;0.70;;;;;;;30.63;14.91;101359.28;5574769;31;32706;-66
2022/05/19 14:28:15;;;;;;;1.87;0.80;;;;;;;31.18;14.32;101340.22;5588093;31;33211;-66
2022/05/19 14:31:39;;;;;;;1.12;0.80;;;;;;;31.45;14.77;101340.62;5577656;31;33431;-67
2022/05/19 14:34:42;;;;;;;1.10;0.80;;;;;;;32.87;13.26;101340.25;5587584;31;32811;-67
2022/05/19 14:37:52;;;;;;;1.17;0.80;;;;;;;30.86;14.18;101329.63;5589097;31;34585;-65
2022/05/19 14:44:33;;;;;;;1.10;0.70;;;;;;;30.97;15.34;101331.25;5588930;31;34846;-66
2022/05/19 14:47:43;;;;;;;1.80;1.08;;;;;;;33.44;12.93;101320.00;5587498;31;33176;-68
2022/05/19 14:50:46;;;;;;;2.15;0.80;;;;;;;32.79;13.42;101318.91;5588472;31;35299;-68
2022/05/19 14:53:49;;;;;;;2.87;0.98;;;;;;;31.11;15.34;101321.34;5588806;31;34708;-67
2022/05/19 14:56:57;;;;;;;2.05;1.08;;;;;;;32.18;13.45;101322.28;5587933;31;33373;-66
2022/05/19 15:00:01;;;;;;;1.52;0.80;;;;;;;32.00;13.57;101309.22;5574752;31;34094;-66
2022/05/19 15:03:06;;;;;;;1.87;0.75;;;;;;;31.71;14.20;101309.19;5587656;31;32741;-65
2022/05/19 15:06:09;;;;;;;2.20;0.70;;;;;;;30.50;15.15;101307.81;5587398;31;33812;-65
2022/05/19 15:09:12;;;;;;;2.33;0.80;;;;;;;30.29;15.61;101306.22;5588335;31;35190;-67
2022/05/19 15:12:15;;;;;;;1.08;0.80;;;;;;;34.10;12.87;101307.94;5587357;31;33305;-66
2022/05/19 15:15:18;;;;;;;1.52;0.80;;;;;;;35.55;11.46;101302.47;5587058;31;32907;-66
2022/05/19 15:18:21;;;;;;;2.08;0.80;;;;;;;35.75;11.36;101306.72;5587127;31;32859;-66